createdAt,value
2022-09-28T00:00:23.750Z,68.50
2022-09-28T00:02:57.528Z,68.68
2022-09-28T00:05:32.499Z,68.44
2022-09-28T00:08:05.367Z,68.35
2022-09-28T00:10:38.142Z,68.56
2022-09-28T00:13:11.013Z,68.29
2022-09-28T00:15:43.703Z,68.81
2022-09-28T00:18:16.968Z,68.29
2022-09-28T00:21:00.957Z,68.59
2022-09-28T00:23:34.293Z,68.61
2022-09-28T00:26:07.208Z,68.49
2022-09-28T00:28:39.841Z,68.15
2022-09-28T00:31:13.139Z,68.48
2022-09-28T00:33:46.015Z,68.45
2022-09-28T00:36:20.577Z,68.20
2022-09-28T00:38:53.393Z,68.59
2022-09-28T00:41:28.199Z,68.17
2022-09-28T00:44:37.564Z,68.33
2022-09-28T00:47:46.627Z,68.32
2022-09-28T00:50:27.871Z,68.40
2022-09-28T00:53:04.878Z,68.68
2022-09-28T00:55:42.259Z,68.66
2022-09-28T00:58:19.500Z,68.79
2022-09-28T01:00:52.909Z,68.38
2022-09-28T01:03:26.160Z,68.23
2022-09-28T01:06:02.225Z,68.17
2022-09-28T01:08:38.221Z,68.19
2022-09-28T01:11:11.077Z,68.79
2022-09-28T01:13:45.093Z,68.46
2022-09-28T01:16:25.393Z,68.50
2022-09-28T01:19:09.009Z,68.78
2022-09-28T01:21:52.111Z,68.86
2022-09-28T01:24:42.747Z,68.87
2022-09-28T01:27:21.884Z,68.52
2022-09-28T01:30:04.838Z,68.28
2022-09-28T01:32:45.045Z,68.80
2022-09-28T01:35:21.787Z,69.34
2022-09-28T01:38:01.697Z,69.34
2022-09-28T01:40:36.150Z,69.17
2022-09-28T01:43:15.384Z,70.00
2022-09-28T01:45:51.983Z,69.46
2022-09-28T01:48:31.331Z,69.54
2022-09-28T01:51:11.391Z,69.69
2022-09-28T01:53:49.001Z,69.64
2022-09-28T01:56:30.113Z,69.66
2022-09-28T01:59:11.327Z,69.29
2022-09-28T02:01:50.236Z,69.57
2022-09-28T02:04:28.542Z,69.09
2022-09-28T02:07:08.640Z,69.76
2022-09-28T02:09:47.186Z,69.33
2022-09-28T02:12:26.162Z,69.10
2022-09-28T02:15:11.719Z,68.72
2022-09-28T02:17:45.514Z,69.00
2022-09-28T02:20:22.582Z,69.21
2022-09-28T02:22:57.420Z,68.96
2022-09-28T02:25:35.743Z,69.42
2022-09-28T02:28:13.453Z,69.57
2022-09-28T02:30:47.655Z,69.39
2022-09-28T02:33:26.367Z,69.55
2022-09-28T02:36:00.994Z,69.41
2022-09-28T02:38:35.072Z,67.92
2022-09-28T02:41:12.664Z,68.54
2022-09-28T02:43:55.900Z,69.50
2022-09-28T02:46:32.839Z,68.99
2022-09-28T02:49:24.815Z,68.76
2022-09-28T02:52:26.024Z,69.49
2022-09-28T02:55:19.752Z,69.50
2022-09-28T02:58:10.691Z,69.75
2022-09-28T03:00:52.488Z,70.16
2022-09-28T03:03:35.832Z,69.82
2022-09-28T03:06:16.281Z,70.16
2022-09-28T03:09:00.843Z,69.98
2022-09-28T03:11:45.935Z,70.28
2022-09-28T03:14:20.222Z,70.31
2022-09-28T03:16:58.461Z,69.26
2022-09-28T03:19:34.193Z,69.79
2022-09-28T03:22:07.972Z,69.46
2022-09-28T03:24:41.058Z,69.35
2022-09-28T03:27:14.098Z,69.18
2022-09-28T03:29:49.423Z,70.05
2022-09-28T03:32:22.346Z,69.15
2022-09-28T03:34:56.887Z,69.02
2022-09-28T03:37:29.899Z,69.09
2022-09-28T03:40:03.244Z,70.02
2022-09-28T03:42:37.445Z,69.30
2022-09-28T03:45:11.615Z,70.02
2022-09-28T03:47:48.634Z,69.57
2022-09-28T03:50:22.934Z,69.43
2022-09-28T03:52:55.621Z,69.98
2022-09-28T03:55:28.657Z,69.28
2022-09-28T03:58:01.469Z,69.92
2022-09-28T04:00:36.401Z,69.83
2022-09-28T04:03:09.477Z,69.80
2022-09-28T04:05:50.821Z,69.94
2022-09-28T04:08:23.627Z,69.48
2022-09-28T04:10:57.374Z,69.77
2022-09-28T04:13:30.388Z,69.54
2022-09-28T04:16:05.109Z,69.35
2022-09-28T04:18:39.894Z,69.07
2022-09-28T04:21:38.602Z,69.32
2022-09-28T04:24:16.291Z,69.32
2022-09-28T04:26:49.531Z,68.85
2022-09-28T04:29:22.785Z,69.38
2022-09-28T04:32:05.974Z,69.02
2022-09-28T04:34:44.187Z,69.16
2022-09-28T04:37:18.709Z,69.57
2022-09-28T04:39:51.412Z,69.45
2022-09-28T04:42:25.410Z,69.45
2022-09-28T04:44:58.843Z,69.41
2022-09-28T04:47:33.125Z,69.31
2022-09-28T04:50:06.420Z,69.35
2022-09-28T04:52:42.713Z,69.19
2022-09-28T04:55:15.802Z,69.57
2022-09-28T04:57:49.863Z,69.17
2022-09-28T05:00:22.661Z,69.21
2022-09-28T05:03:10.432Z,69.67
2022-09-28T05:06:13.724Z,70.18
2022-09-28T05:08:50.792Z,70.16
2022-09-28T05:11:23.652Z,70.42
2022-09-28T05:13:56.643Z,70.21
2022-09-28T05:16:33.710Z,69.41
2022-09-28T05:19:25.677Z,69.75
2022-09-28T05:22:04.119Z,70.19
2022-09-28T05:24:43.797Z,69.83
2022-09-28T05:27:16.773Z,70.34
2022-09-28T05:29:53.861Z,70.04
2022-09-28T05:32:53.597Z,70.00
2022-09-28T05:35:44.689Z,70.47
2022-09-28T05:38:18.454Z,70.40
2022-09-28T05:40:53.625Z,70.51
2022-09-28T05:43:27.531Z,70.31
2022-09-28T05:46:01.771Z,70.33
2022-09-28T05:48:34.820Z,70.71
2022-09-28T05:51:10.667Z,70.15
2022-09-28T05:53:43.868Z,70.43
2022-09-28T05:56:18.149Z,70.47
2022-09-28T05:58:51.455Z,70.56
2022-09-28T06:01:26.593Z,70.89
2022-09-28T06:04:03.286Z,71.07
2022-09-28T06:06:38.428Z,70.41
2022-09-28T06:09:11.822Z,70.89
2022-09-28T06:12:13.964Z,71.27
2022-09-28T06:14:53.462Z,71.06
2022-09-28T06:17:34.596Z,70.98
2022-09-28T06:20:42.186Z,71.29
2022-09-28T06:23:19.956Z,71.34
2022-09-28T06:25:52.857Z,71.63
2022-09-28T06:28:30.166Z,70.90
2022-09-28T06:31:03.299Z,70.67
2022-09-28T06:33:38.808Z,70.45
2022-09-28T06:36:11.977Z,70.33
2022-09-28T06:38:45.195Z,70.14
2022-09-28T06:41:21.166Z,70.56
2022-09-28T06:43:56.376Z,70.52
2022-09-28T06:46:48.237Z,69.87
2022-09-28T06:49:55.419Z,69.71
2022-09-28T06:52:46.950Z,70.15
2022-09-28T06:55:39.440Z,70.22
2022-09-28T06:58:14.383Z,70.20
2022-09-28T07:00:51.993Z,70.35
2022-09-28T07:03:25.411Z,70.21
2022-09-28T07:06:26.688Z,70.53
2022-09-28T07:09:29.356Z,70.67
2022-09-28T07:12:17.751Z,70.98
2022-09-28T07:14:59.058Z,71.31
2022-09-28T07:17:48.412Z,70.57
2022-09-28T07:20:27.569Z,71.35
2022-09-28T07:23:14.187Z,70.78
2022-09-28T07:26:09.581Z,70.55
2022-09-28T07:29:11.883Z,70.63
2022-09-28T07:32:05.947Z,70.31
2022-09-28T07:34:59.350Z,70.51
2022-09-28T07:37:49.180Z,70.48
2022-09-28T07:40:39.826Z,70.33
2022-09-28T07:43:13.074Z,69.99
2022-09-28T07:45:45.880Z,70.02
2022-09-28T07:48:19.150Z,70.12
2022-09-28T07:51:20.119Z,70.01
2022-09-28T07:54:23.381Z,70.23
2022-09-28T07:57:15.256Z,70.35
2022-09-28T08:00:06.404Z,70.04
2022-09-28T08:02:50.033Z,69.92
2022-09-28T08:05:32.045Z,70.18
2022-09-28T08:08:06.233Z,69.55
2022-09-28T08:10:41.578Z,69.34
2022-09-28T08:13:47.637Z,69.34
2022-09-28T08:16:48.594Z,69.04
2022-09-28T08:20:00.096Z,68.75
2022-09-28T08:22:34.132Z,68.54
2022-09-28T08:25:09.801Z,68.70
2022-09-28T08:27:42.790Z,68.16
2022-09-28T08:30:15.714Z,68.53
2022-09-28T08:32:53.722Z,68.60
2022-09-28T08:35:46.069Z,68.29
2022-09-28T08:38:26.679Z,68.09
2022-09-28T08:41:35.415Z,68.57
2022-09-28T08:44:38.321Z,68.48
2022-09-28T08:47:39.917Z,68.37
2022-09-28T08:50:52.789Z,68.45
2022-09-28T08:53:41.692Z,68.86
2022-09-28T08:56:30.449Z,68.17
2022-09-28T08:59:06.596Z,67.79
2022-09-28T09:01:46.338Z,67.74
2022-09-28T09:04:22.184Z,67.71
2022-09-28T09:07:48.675Z,67.44
2022-09-28T09:10:42.876Z,67.62
2022-09-28T09:13:42.652Z,67.74
2022-09-28T09:16:25.712Z,67.79
2022-09-28T09:19:24.587Z,67.65
2022-09-28T09:22:22.907Z,67.53
2022-09-28T09:25:04.629Z,67.59
2022-09-28T09:27:51.014Z,67.15
2022-09-28T09:30:30.492Z,67.18
2022-09-28T09:33:39.415Z,67.22
2022-09-28T09:36:41.315Z,67.54
2022-09-28T09:39:52.796Z,67.99
2022-09-28T09:43:05.365Z,67.82
2022-09-28T09:46:02.953Z,68.31
2022-09-28T09:49:13.756Z,67.10
2022-09-28T09:51:51.846Z,67.49
2022-09-28T09:54:31.196Z,67.33
2022-09-28T09:57:11.291Z,67.96
2022-09-28T09:59:51.027Z,67.47
2022-09-28T10:02:36.040Z,65.92
2022-09-28T10:05:22.208Z,67.19
2022-09-28T10:08:01.182Z,67.76
2022-09-28T10:10:36.912Z,65.46
2022-09-28T10:13:14.918Z,67.56
2022-09-28T10:15:50.467Z,68.38
2022-09-28T10:18:32.619Z,67.13
2022-09-28T10:21:42.707Z,66.97
2022-09-28T10:24:31.230Z,65.03
2022-09-28T10:27:09.619Z,66.11
2022-09-28T10:29:53.097Z,64.99
2022-09-28T10:32:27.844Z,66.88
2022-09-28T10:35:23.489Z,65.37
2022-09-28T10:38:04.989Z,65.64
2022-09-28T10:41:01.428Z,66.10
2022-09-28T10:44:06.123Z,65.58
2022-09-28T10:47:08.103Z,65.71
2022-09-28T10:49:48.390Z,65.86
2022-09-28T10:52:39.947Z,66.31
2022-09-28T10:55:29.030Z,65.21
2022-09-28T10:58:25.413Z,65.64
2022-09-28T11:01:04.708Z,65.49
2022-09-28T11:03:50.808Z,65.90
2022-09-28T11:06:26.930Z,65.58
2022-09-28T11:09:04.733Z,65.81
2022-09-28T11:11:42.279Z,65.71
2022-09-28T11:14:27.426Z,65.33
2022-09-28T11:17:25.738Z,65.74
2022-09-28T11:20:01.352Z,65.61
2022-09-28T11:22:41.977Z,64.23
2022-09-28T11:25:24.817Z,65.74
2022-09-28T11:28:00.791Z,64.63
2022-09-28T11:30:40.662Z,65.65
2022-09-28T11:33:38.291Z,66.04
2022-09-28T11:36:55.678Z,65.70
2022-09-28T11:39:40.072Z,65.16
2022-09-28T11:42:24.716Z,65.16
2022-09-28T11:45:07.752Z,64.71
2022-09-28T11:47:59.221Z,65.71
2022-09-28T11:50:43.609Z,64.76
2022-09-28T11:53:24.064Z,65.30
2022-09-28T11:56:10.970Z,64.64
2022-09-28T11:58:50.275Z,64.35
2022-09-28T12:01:35.528Z,63.94
2022-09-28T12:04:36.929Z,64.45
2022-09-28T12:07:17.928Z,64.80
2022-09-28T12:09:56.680Z,63.65
2022-09-28T12:12:36.416Z,64.46
2022-09-28T12:15:27.013Z,64.58
2022-09-28T12:18:04.702Z,64.86
2022-09-28T12:20:55.684Z,64.81
2022-09-28T12:23:38.350Z,64.48
2022-09-28T12:26:26.694Z,64.09
2022-09-28T12:29:03.011Z,64.28
2022-09-28T12:31:45.769Z,64.37
2022-09-28T12:34:18.810Z,64.50
2022-09-28T12:37:07.333Z,64.71
2022-09-28T12:39:57.941Z,64.82
2022-09-28T12:42:44.319Z,64.36
2022-09-28T12:45:53.147Z,64.28
2022-09-28T12:49:37.045Z,64.10
2022-09-28T12:51:53.962Z,64.21
2022-09-28T12:54:48.302Z,64.63
2022-09-28T12:57:38.944Z,64.58
2022-09-28T13:00:17.124Z,64.58
2022-09-28T13:03:13.520Z,65.15
2022-09-28T13:06:05.534Z,64.54
2022-09-28T13:08:59.571Z,64.56
2022-09-28T13:11:59.545Z,64.47
2022-09-28T13:14:56.651Z,64.64
2022-09-28T13:17:52.808Z,64.31
2022-09-28T13:20:33.189Z,64.46
2022-09-28T13:23:26.727Z,64.77
2022-09-28T13:26:11.068Z,64.39
2022-09-28T13:28:48.283Z,64.36
2022-09-28T13:31:33.189Z,64.03
2022-09-28T13:34:20.774Z,64.22
2022-09-28T13:37:28.192Z,64.13
2022-09-28T13:43:29.972Z,64.28
2022-09-28T13:46:11.631Z,64.01
2022-09-28T13:48:49.686Z,63.82
2022-09-28T13:51:41.005Z,64.03
2022-09-28T13:54:31.462Z,63.71
2022-09-28T13:57:19.839Z,63.80
2022-09-28T14:00:03.951Z,63.89
2022-09-28T14:02:52.839Z,63.48
2022-09-28T14:06:04.635Z,63.71
2022-09-28T14:09:29.685Z,63.45
2022-09-28T14:12:14.963Z,63.23
2022-09-28T14:15:12.257Z,63.64
2022-09-28T14:17:58.113Z,63.20
2022-09-28T14:20:33.658Z,63.26
2022-09-28T14:23:30.593Z,63.82
2022-09-28T14:26:24.279Z,64.52
2022-09-28T14:29:04.522Z,64.27
2022-09-28T14:31:45.333Z,64.57
2022-09-28T14:34:36.824Z,65.04
2022-09-28T14:37:39.409Z,65.76
2022-09-28T14:40:36.809Z,66.07
2022-09-28T14:43:58.663Z,66.54
2022-09-28T14:46:44.765Z,66.02
2022-09-28T14:49:48.991Z,65.69
2022-09-28T14:52:43.211Z,65.51
2022-09-28T14:55:18.637Z,65.76
2022-09-28T14:57:58.237Z,65.34
2022-09-28T15:00:32.537Z,65.04
2022-09-28T15:03:11.999Z,65.38
2022-09-28T15:05:48.091Z,66.03
2022-09-28T15:08:22.713Z,65.85
2022-09-28T15:10:58.671Z,65.78
2022-09-28T15:13:32.087Z,65.44
2022-09-28T15:16:11.475Z,65.43
2022-09-28T15:19:18.404Z,65.80
2022-09-28T15:21:51.894Z,65.54
2022-09-28T15:24:27.965Z,67.39
2022-09-28T15:27:01.970Z,66.20
2022-09-28T15:29:36.681Z,66.61
2022-09-28T15:32:27.056Z,66.70
2022-09-28T15:35:26.407Z,66.36
2022-09-28T15:44:09.817Z,67.15
2022-09-28T15:47:10.656Z,66.36
2022-09-28T15:49:57.461Z,66.35
2022-09-28T15:52:37.188Z,66.44
2022-09-28T15:55:22.283Z,66.64
2022-09-28T16:01:36.639Z,67.16
2022-09-28T16:08:43.462Z,66.90
2022-09-28T16:15:48.004Z,67.59
2022-09-28T16:18:32.514Z,67.89
2022-09-28T16:21:43.040Z,69.04
2022-09-28T16:24:32.798Z,68.13
2022-09-28T16:26:59.764Z,67.58
2022-09-28T16:27:08.944Z,67.61
2022-09-28T16:30:22.589Z,67.62
2022-09-28T16:33:01.415Z,68.12
2022-09-28T16:35:52.155Z,68.28
2022-09-28T16:38:25.237Z,67.44
2022-09-28T16:41:02.841Z,68.51
2022-09-28T16:43:36.656Z,68.70
2022-09-28T16:46:12.842Z,68.57
2022-09-28T16:48:48.754Z,68.63
2022-09-28T16:51:23.550Z,68.58
2022-09-28T16:54:18.408Z,68.65
2022-09-28T16:56:53.007Z,68.22
2022-09-28T16:59:26.173Z,68.60
2022-09-28T17:01:58.940Z,68.42
2022-09-28T17:04:31.794Z,68.48
2022-09-28T17:07:05.657Z,68.22
2022-09-28T17:09:38.551Z,68.48
2022-09-28T17:12:17.474Z,68.54
2022-09-28T17:14:50.324Z,68.42
2022-09-28T17:17:23.507Z,68.59
2022-09-28T17:19:56.871Z,69.09
2022-09-28T17:22:29.934Z,68.77
2022-09-28T17:25:02.584Z,69.18
2022-09-28T17:27:37.719Z,69.25
2022-09-28T17:30:12.336Z,68.67
2022-09-28T17:32:47.083Z,67.40
2022-09-28T17:35:25.374Z,68.56
2022-09-28T17:37:58.549Z,69.16
2022-09-28T17:40:31.429Z,69.13
2022-09-28T17:43:06.709Z,69.15
2022-09-28T17:45:41.141Z,69.23
2022-09-28T17:48:15.847Z,69.20
2022-09-28T17:50:49.299Z,69.56
2022-09-28T17:53:22.086Z,69.26
2022-09-28T17:55:54.890Z,69.52
2022-09-28T17:58:29.356Z,69.30
2022-09-28T18:01:02.438Z,69.20
2022-09-28T18:03:35.169Z,69.15
2022-09-28T18:06:13.120Z,69.42
2022-09-28T18:08:46.801Z,69.46
2022-09-28T18:11:19.682Z,68.93
2022-09-28T18:13:54.707Z,69.36
2022-09-28T18:16:28.989Z,69.71
2022-09-28T18:19:04.966Z,70.15
2022-09-28T18:21:38.304Z,69.98
2022-09-28T18:24:11.080Z,70.38
2022-09-28T18:26:46.648Z,70.35
2022-09-28T18:29:20.687Z,70.51
2022-09-28T18:31:53.980Z,69.45
2022-09-28T18:34:29.205Z,70.10
2022-09-28T18:37:01.984Z,70.35
2022-09-28T18:39:36.794Z,70.38
2022-09-28T18:42:11.031Z,70.42
2022-09-28T18:44:45.675Z,70.15
2022-09-28T18:47:21.825Z,70.16
2022-09-28T18:49:54.757Z,70.46
2022-09-28T18:52:31.133Z,70.39
2022-09-28T18:55:05.214Z,70.17
2022-09-28T18:57:40.463Z,70.10
2022-09-28T19:00:16.387Z,69.77
2022-09-28T19:02:52.150Z,70.02
2022-09-28T19:05:27.557Z,70.23
2022-09-28T19:08:00.645Z,70.10
2022-09-28T19:10:36.008Z,70.22
2022-09-28T19:13:08.961Z,70.35
2022-09-28T19:15:43.260Z,70.60
2022-09-28T19:18:25.836Z,71.00
2022-09-28T19:21:06.473Z,70.91
2022-09-28T19:23:44.808Z,71.23
2022-09-28T19:26:26.207Z,71.02
2022-09-28T19:29:00.169Z,71.27
2022-09-28T19:31:54.146Z,71.41
2022-09-28T19:34:30.354Z,70.43
2022-09-28T19:37:04.020Z,71.14
2022-09-28T19:39:37.097Z,71.56
2022-09-28T19:42:09.776Z,71.33
2022-09-28T19:44:42.728Z,71.16
2022-09-28T19:47:19.990Z,71.60
2022-09-28T19:49:52.856Z,71.04
2022-09-28T19:52:25.725Z,71.00
2022-09-28T19:54:59.941Z,71.11
2022-09-28T19:57:33.689Z,71.49
2022-09-28T20:00:08.795Z,71.01
2022-09-28T20:02:42.946Z,71.24
2022-09-28T20:05:15.965Z,71.11
2022-09-28T20:07:48.645Z,71.44
2022-09-28T20:10:21.680Z,71.38
2022-09-28T20:12:54.247Z,71.14
2022-09-28T20:15:27.178Z,71.34
2022-09-28T20:18:01.214Z,71.13
2022-09-28T20:20:34.053Z,71.47
2022-09-28T20:23:06.822Z,71.43
2022-09-28T20:25:39.972Z,71.24
2022-09-28T20:28:12.726Z,71.64
2022-09-28T20:30:45.543Z,71.48
2022-09-28T20:33:28.532Z,71.80
2022-09-28T20:36:06.797Z,71.66
2022-09-28T20:38:40.412Z,70.85
2022-09-28T20:41:14.649Z,71.29
2022-09-28T20:43:47.762Z,71.13
2022-09-28T20:46:21.957Z,71.03
2022-09-28T20:48:57.918Z,71.23
2022-09-28T20:51:30.720Z,71.50
2022-09-28T20:54:03.533Z,71.02
2022-09-28T20:56:38.266Z,71.03
2022-09-28T20:59:12.920Z,71.02
2022-09-28T21:01:45.717Z,70.82
2022-09-28T21:04:19.985Z,71.48
2022-09-28T21:06:53.189Z,71.02
2022-09-28T21:09:25.871Z,71.12
2022-09-28T21:11:59.905Z,71.04
2022-09-28T21:14:32.620Z,71.43
2022-09-28T21:17:05.480Z,71.17
2022-09-28T21:19:39.559Z,71.35
2022-09-28T21:22:12.658Z,71.00
2022-09-28T21:24:45.211Z,71.37
2022-09-28T21:27:18.009Z,71.40
2022-09-28T21:29:50.699Z,70.91
2022-09-28T21:32:24.241Z,71.48
2022-09-28T21:34:58.353Z,71.09
2022-09-28T21:37:31.175Z,71.30
2022-09-28T21:40:06.908Z,72.06
2022-09-28T21:42:39.658Z,71.17
2022-09-28T21:45:12.458Z,71.17
2022-09-28T21:47:52.689Z,71.08
2022-09-28T21:50:27.986Z,71.68
2022-09-28T21:53:03.229Z,71.38
2022-09-28T21:55:36.186Z,71.39
2022-09-28T21:58:09.079Z,71.41
2022-09-28T22:00:41.814Z,71.54
2022-09-28T22:03:16.903Z,71.63
2022-09-28T22:05:53.162Z,71.10
2022-09-28T22:08:27.400Z,71.33
2022-09-28T22:11:01.550Z,71.71
2022-09-28T22:13:37.177Z,71.54
2022-09-28T22:16:10.884Z,71.63
2022-09-28T22:18:44.161Z,71.69
2022-09-28T22:21:20.222Z,71.46
2022-09-28T22:23:52.884Z,71.18
2022-09-28T22:26:27.303Z,71.89
2022-09-28T22:29:01.925Z,71.72
2022-09-28T22:31:36.411Z,71.39
2022-09-28T22:34:10.469Z,71.57
2022-09-28T22:36:44.631Z,71.48
2022-09-28T22:39:17.677Z,71.69
2022-09-28T22:41:50.363Z,71.56
2022-09-28T22:44:23.164Z,72.24
2022-09-28T22:46:56.075Z,71.81
2022-09-28T22:49:29.100Z,72.08
2022-09-28T22:52:03.399Z,72.18
2022-09-28T22:54:37.678Z,71.82
2022-09-28T22:57:10.415Z,72.04
2022-09-28T22:59:43.079Z,72.13
2022-09-28T23:02:15.730Z,72.20
2022-09-28T23:04:48.571Z,72.37
2022-09-28T23:07:22.855Z,72.48
2022-09-28T23:09:59.119Z,72.21
2022-09-28T23:12:33.342Z,72.42
2022-09-28T23:15:07.560Z,72.21
2022-09-28T23:17:40.727Z,72.27
2022-09-28T23:20:13.645Z,72.20
2022-09-28T23:22:48.469Z,72.42
2022-09-28T23:25:21.439Z,72.36
2022-09-28T23:27:54.277Z,72.45
2022-09-28T23:30:27.043Z,71.88
2022-09-28T23:32:59.759Z,72.57
2022-09-28T23:35:34.717Z,72.60
2022-09-28T23:38:13.436Z,72.43
2022-09-28T23:40:47.714Z,72.54
2022-09-28T23:43:20.818Z,72.38
2022-09-28T23:45:54.005Z,72.38
2022-09-28T23:48:26.857Z,72.76
2022-09-28T23:50:59.795Z,72.84
2022-09-28T23:53:33.860Z,72.94
2022-09-28T23:56:07.257Z,73.19
2022-09-28T23:58:39.976Z,73.68
